createdAt,value
2023-01-08T00:00:22.632Z,9.61
2023-01-08T00:03:24.837Z,9.52
2023-01-08T00:06:26.609Z,9.58
2023-01-08T00:09:29.179Z,9.58
2023-01-08T00:12:30.600Z,9.70
2023-01-08T00:15:33.622Z,9.81
2023-01-08T00:18:35.184Z,9.81
2023-01-08T00:21:36.605Z,9.88
2023-01-08T00:24:38.011Z,10.05
2023-01-08T00:27:39.393Z,10.13
2023-01-08T00:30:42.182Z,10.50
2023-01-08T00:33:43.663Z,10.38
2023-01-08T00:36:45.063Z,9.93
2023-01-08T00:39:46.491Z,10.13
2023-01-08T00:42:48.214Z,10.08
2023-01-08T00:45:53.580Z,10.34
2023-01-08T00:48:55.132Z,10.71
2023-01-08T00:51:56.556Z,10.28
2023-01-08T00:54:57.976Z,10.48
2023-01-08T00:57:59.377Z,10.78
2023-01-08T01:01:00.998Z,10.77
2023-01-08T01:04:02.496Z,10.75
2023-01-08T01:07:04.312Z,10.84
2023-01-08T01:10:06.190Z,10.87
2023-01-08T01:13:07.873Z,11.02
2023-01-08T01:16:09.431Z,11.00
2023-01-08T01:19:11.044Z,10.91
2023-01-08T01:22:12.479Z,11.03
2023-01-08T01:25:13.958Z,10.99
2023-01-08T01:28:16.170Z,10.82
2023-01-08T01:31:18.905Z,11.06
2023-01-08T01:34:20.441Z,11.22
2023-01-08T01:37:21.833Z,10.96
2023-01-08T01:40:23.256Z,11.26
2023-01-08T01:43:40.151Z,11.41
2023-01-08T01:46:41.744Z,11.42
2023-01-08T01:49:49.190Z,11.25
2023-01-08T01:53:24.010Z,11.17
2023-01-08T01:56:27.167Z,11.09
2023-01-08T01:59:29.152Z,11.18
2023-01-08T02:02:32.485Z,11.23
2023-01-08T02:05:44.335Z,11.35
2023-01-08T02:08:48.702Z,11.35
2023-01-08T02:12:19.086Z,11.39
2023-01-08T02:15:39.084Z,11.55
2023-01-08T02:18:50.555Z,11.49
2023-01-08T02:22:11.881Z,11.47
2023-01-08T02:25:28.265Z,11.37
2023-01-08T02:28:33.765Z,11.35
2023-01-08T02:31:38.596Z,11.30
2023-01-08T02:34:40.144Z,11.27
2023-01-08T02:37:42.142Z,11.18
2023-01-08T02:40:58.571Z,10.88
2023-01-08T02:44:00.702Z,11.20
2023-01-08T02:47:07.629Z,11.26
2023-01-08T02:50:13.527Z,11.31
2023-01-08T02:53:18.031Z,11.23
2023-01-08T02:56:24.690Z,11.24
2023-01-08T02:59:29.564Z,11.08
2023-01-08T03:02:35.149Z,11.26
2023-01-08T03:05:40.115Z,11.23
2023-01-08T03:08:44.018Z,11.12
2023-01-08T03:11:57.515Z,11.03
2023-01-08T03:15:07.175Z,11.02
2023-01-08T03:18:13.597Z,11.02
2023-01-08T03:21:17.459Z,10.99
2023-01-08T03:24:25.266Z,11.01
2023-01-08T03:27:32.447Z,10.85
2023-01-08T03:30:36.143Z,10.95
2023-01-08T03:33:38.321Z,10.83
2023-01-08T03:36:43.867Z,10.92
2023-01-08T03:39:55.670Z,10.88
2023-01-08T03:42:57.852Z,10.75
2023-01-08T03:46:03.347Z,10.67
2023-01-08T03:49:06.690Z,10.67
2023-01-08T03:52:08.261Z,10.41
2023-01-08T03:55:09.863Z,10.42
2023-01-08T03:58:11.273Z,10.35
2023-01-08T04:01:12.721Z,10.31
2023-01-08T04:04:14.239Z,10.22
2023-01-08T04:07:15.660Z,10.26
2023-01-08T04:10:17.205Z,10.27
2023-01-08T04:13:18.615Z,10.19
2023-01-08T04:16:20.124Z,10.29
2023-01-08T04:19:21.587Z,10.22
2023-01-08T04:22:23.031Z,10.04
2023-01-08T04:25:24.434Z,10.02
2023-01-08T04:28:25.832Z,9.42
2023-01-08T04:31:27.329Z,9.64
2023-01-08T04:34:28.872Z,9.81
2023-01-08T04:37:30.314Z,9.70
2023-01-08T04:40:33.254Z,9.57
2023-01-08T04:43:34.670Z,9.35
2023-01-08T04:46:36.364Z,9.25
2023-01-08T04:49:37.896Z,9.58
2023-01-08T04:52:39.318Z,9.47
2023-01-08T04:55:40.738Z,9.29
2023-01-08T04:58:42.125Z,9.49
2023-01-08T05:01:44.050Z,9.43
2023-01-08T05:04:45.635Z,9.39
2023-01-08T05:07:47.013Z,9.33
2023-01-08T05:10:48.421Z,9.45
2023-01-08T05:13:50.891Z,9.31
2023-01-08T05:16:52.279Z,9.43
2023-01-08T05:19:53.694Z,9.50
2023-01-08T05:22:55.132Z,9.47
2023-01-08T05:26:00.956Z,9.68
2023-01-08T05:29:02.387Z,9.62
2023-01-08T05:32:03.793Z,9.71
2023-01-08T05:35:05.668Z,9.60
2023-01-08T05:38:07.462Z,9.65
2023-01-08T05:41:09.673Z,9.74
2023-01-08T05:44:11.211Z,9.63
2023-01-08T05:47:12.583Z,9.45
2023-01-08T05:50:13.981Z,9.53
2023-01-08T05:53:15.374Z,9.72
2023-01-08T05:56:16.815Z,9.78
2023-01-08T05:59:18.343Z,9.71
2023-01-08T06:02:19.750Z,9.57
2023-01-08T06:05:21.183Z,9.43
2023-01-08T06:08:22.589Z,9.43
2023-01-08T06:11:23.967Z,9.44
2023-01-08T06:14:25.394Z,9.52
2023-01-08T06:17:26.789Z,9.56
2023-01-08T06:20:28.359Z,9.31
2023-01-08T06:23:29.851Z,9.35
2023-01-08T06:26:31.354Z,9.62
2023-01-08T06:29:32.759Z,9.68
2023-01-08T06:32:34.254Z,9.34
2023-01-08T06:35:35.685Z,9.16
2023-01-08T06:38:37.632Z,9.57
2023-01-08T06:41:39.036Z,9.23
2023-01-08T06:44:40.453Z,9.39
2023-01-08T06:47:41.967Z,9.16
2023-01-08T06:50:43.421Z,9.26
2023-01-08T06:53:48.394Z,9.00
2023-01-08T06:56:53.987Z,9.33
2023-01-08T06:59:55.855Z,9.43
2023-01-08T07:02:57.399Z,9.42
2023-01-08T07:05:58.854Z,9.40
2023-01-08T07:09:00.303Z,9.27
2023-01-08T07:12:01.712Z,9.37
2023-01-08T07:15:03.541Z,9.29
2023-01-08T07:18:05.970Z,9.46
2023-01-08T07:21:07.731Z,9.29
2023-01-08T07:24:09.371Z,9.34
2023-01-08T07:27:10.776Z,9.21
2023-01-08T07:30:28.321Z,9.40
2023-01-08T07:33:30.970Z,9.46
2023-01-08T07:36:32.414Z,9.43
2023-01-08T07:39:34.103Z,9.25
2023-01-08T07:42:35.528Z,9.36
2023-01-08T07:45:36.959Z,9.28
2023-01-08T07:48:38.471Z,9.33
2023-01-08T07:51:39.864Z,9.13
2023-01-08T07:54:41.452Z,9.45
2023-01-08T07:57:42.904Z,9.51
2023-01-08T08:00:44.486Z,9.28
2023-01-08T08:03:46.158Z,9.15
2023-01-08T08:06:47.567Z,9.51
2023-01-08T08:09:48.982Z,9.54
2023-01-08T08:12:50.359Z,9.55
2023-01-08T08:15:52.160Z,9.43
2023-01-08T08:18:53.637Z,9.56
2023-01-08T08:21:55.058Z,9.56
2023-01-08T08:24:56.489Z,9.56
2023-01-08T08:27:59.190Z,9.36
2023-01-08T08:31:02.455Z,9.53
2023-01-08T08:34:03.956Z,9.64
2023-01-08T08:37:05.401Z,9.40
2023-01-08T08:40:07.755Z,9.69
2023-01-08T08:43:09.873Z,9.65
2023-01-08T08:46:11.369Z,9.76
2023-01-08T08:49:12.845Z,9.84
2023-01-08T08:52:14.353Z,9.68
2023-01-08T08:55:17.219Z,10.09
2023-01-08T08:58:18.814Z,10.02
2023-01-08T09:01:20.315Z,10.14
2023-01-08T09:04:21.819Z,9.83
2023-01-08T09:07:23.195Z,10.19
2023-01-08T09:10:24.697Z,10.06
2023-01-08T09:13:26.168Z,9.87
2023-01-08T09:16:27.644Z,9.78
2023-01-08T09:19:29.056Z,9.96
2023-01-08T09:22:30.813Z,10.01
2023-01-08T09:25:32.467Z,9.72
2023-01-08T09:28:33.907Z,9.85
2023-01-08T09:31:35.355Z,10.05
2023-01-08T09:34:36.911Z,10.12
2023-01-08T09:37:38.320Z,10.14
2023-01-08T09:40:47.523Z,10.00
2023-01-08T09:43:52.756Z,9.80
2023-01-08T09:46:56.002Z,10.07
2023-01-08T09:50:02.168Z,10.21
2023-01-08T09:53:03.869Z,10.17
2023-01-08T09:56:13.046Z,9.79
2023-01-08T09:59:18.176Z,10.16
2023-01-08T10:02:23.910Z,10.03
2023-01-08T10:05:26.856Z,9.97
2023-01-08T10:08:28.296Z,9.95
2023-01-08T10:11:42.394Z,10.21
2023-01-08T10:14:49.811Z,10.26
2023-01-08T10:18:11.642Z,10.47
2023-01-08T10:21:15.013Z,10.54
2023-01-08T10:24:16.609Z,10.44
2023-01-08T10:27:21.599Z,10.29
2023-01-08T10:30:35.093Z,10.20
2023-01-08T10:33:43.794Z,10.39
2023-01-08T10:36:45.214Z,10.30
2023-01-08T10:39:47.939Z,10.43
2023-01-08T10:42:50.983Z,10.27
2023-01-08T10:46:05.097Z,10.26
2023-01-08T10:49:13.259Z,10.19
2023-01-08T10:52:28.194Z,10.31
2023-01-08T10:55:32.247Z,10.22
2023-01-08T10:58:43.408Z,10.54
2023-01-08T11:01:50.679Z,10.33
2023-01-08T11:04:52.793Z,10.48
2023-01-08T11:07:57.380Z,10.43
2023-01-08T11:11:01.198Z,10.41
2023-01-08T11:14:17.677Z,10.21
2023-01-08T11:17:19.251Z,10.49
2023-01-08T11:20:30.674Z,10.47
2023-01-08T11:23:32.152Z,10.60
2023-01-08T11:26:36.911Z,10.77
2023-01-08T11:29:50.229Z,10.75
2023-01-08T11:33:12.405Z,10.84
2023-01-08T11:36:23.446Z,10.63
2023-01-08T11:39:25.524Z,10.39
2023-01-08T11:42:45.672Z,10.12
2023-01-08T11:46:06.976Z,10.23
2023-01-08T11:49:39.354Z,10.31
2023-01-08T11:52:45.231Z,10.41
2023-01-08T11:56:17.128Z,10.19
2023-01-08T11:59:58.161Z,10.62
2023-01-08T12:03:03.260Z,10.78
2023-01-08T12:06:36.907Z,10.78
2023-01-08T12:09:46.161Z,10.67
2023-01-08T12:12:57.667Z,10.60
2023-01-08T12:16:31.044Z,10.56
2023-01-08T12:19:59.566Z,10.81
2023-01-08T12:23:16.095Z,10.88
2023-01-08T12:26:29.791Z,10.99
2023-01-08T12:29:46.285Z,10.99
2023-01-08T12:32:54.974Z,11.22
2023-01-08T12:36:02.348Z,11.05
2023-01-08T12:39:11.627Z,10.93
2023-01-08T12:42:24.295Z,11.08
2023-01-08T12:45:32.447Z,11.00
2023-01-08T12:48:37.753Z,11.04
2023-01-08T12:51:46.910Z,10.99
2023-01-08T12:55:02.439Z,11.12
2023-01-08T12:58:22.814Z,11.29
2023-01-08T13:01:40.580Z,11.24
2023-01-08T13:04:46.132Z,11.12
2023-01-08T13:08:00.200Z,11.18
2023-01-08T13:11:02.605Z,11.13
2023-01-08T13:14:07.933Z,10.83
2023-01-08T13:17:22.224Z,10.89
2023-01-08T13:20:32.176Z,10.90
2023-01-08T13:23:35.366Z,10.75
2023-01-08T13:26:37.247Z,10.93
2023-01-08T13:29:42.565Z,10.59
2023-01-08T13:32:47.176Z,11.09
2023-01-08T13:35:48.747Z,10.83
2023-01-08T13:39:11.986Z,11.03
2023-01-08T13:42:29.930Z,11.08
2023-01-08T13:45:32.701Z,11.19
2023-01-08T13:48:38.426Z,11.12
2023-01-08T13:51:44.095Z,10.79
2023-01-08T13:54:45.575Z,11.09
2023-01-08T13:57:55.787Z,10.93
2023-01-08T14:00:58.158Z,11.09
2023-01-08T14:03:59.607Z,10.70
2023-01-08T14:07:13.749Z,11.09
2023-01-08T14:10:17.380Z,10.65
2023-01-08T14:13:28.597Z,10.75
2023-01-08T14:16:30.578Z,10.93
2023-01-08T14:19:32.169Z,11.14
2023-01-08T14:22:34.785Z,11.26
2023-01-08T14:25:36.480Z,11.05
2023-01-08T14:28:37.922Z,10.91
2023-01-08T14:31:47.145Z,10.54
2023-01-08T14:34:50.853Z,10.75
2023-01-08T14:37:58.953Z,10.09
2023-01-08T14:41:53.733Z,10.37
2023-01-08T14:45:01.864Z,10.55
2023-01-08T14:48:12.952Z,10.62
2023-01-08T14:51:20.968Z,10.18
2023-01-08T14:54:30.135Z,10.36
2023-01-08T14:57:31.656Z,10.67
2023-01-08T15:00:33.166Z,10.46
2023-01-08T15:03:41.067Z,10.39
2023-01-08T15:06:42.935Z,10.60
2023-01-08T15:09:55.523Z,10.53
2023-01-08T15:12:57.496Z,10.68
2023-01-08T15:16:05.595Z,10.49
2023-01-08T15:19:20.341Z,10.25
2023-01-08T15:22:27.597Z,10.40
2023-01-08T15:25:30.736Z,10.38
2023-01-08T15:28:32.712Z,10.44
2023-01-08T15:31:39.926Z,10.59
2023-01-08T15:34:43.187Z,10.65
2023-01-08T15:37:45.249Z,10.44
2023-01-08T15:40:47.946Z,10.49
2023-01-08T15:43:51.430Z,10.33
2023-01-08T15:46:53.102Z,10.42
2023-01-08T15:49:54.588Z,10.27
2023-01-08T15:52:57.355Z,10.40
2023-01-08T15:55:58.869Z,10.46
2023-01-08T15:59:00.271Z,10.47
2023-01-08T16:02:01.852Z,10.37
2023-01-08T16:05:03.565Z,10.18
2023-01-08T16:08:06.007Z,10.14
2023-01-08T16:11:07.483Z,10.31
2023-01-08T16:14:10.668Z,10.30
2023-01-08T16:17:12.046Z,10.21
2023-01-08T16:20:14.120Z,9.92
2023-01-08T16:23:16.299Z,9.90
2023-01-08T16:26:17.798Z,9.99
2023-01-08T16:29:19.445Z,9.66
2023-01-08T16:32:20.867Z,10.06
2023-01-08T16:35:22.445Z,10.18
2023-01-08T16:38:25.151Z,10.03
2023-01-08T16:41:26.531Z,10.14
2023-01-08T16:44:32.338Z,9.84
2023-01-08T16:47:39.803Z,9.76
2023-01-08T16:50:42.738Z,9.82
2023-01-08T16:53:45.360Z,9.76
2023-01-08T16:56:46.858Z,9.77
2023-01-08T16:59:48.389Z,9.74
2023-01-08T17:02:50.152Z,9.68
2023-01-08T17:05:51.977Z,9.75
2023-01-08T17:08:54.545Z,9.68
2023-01-08T17:11:55.996Z,9.61
2023-01-08T17:14:57.388Z,9.63
2023-01-08T17:17:58.835Z,9.61
2023-01-08T17:21:00.458Z,9.69
2023-01-08T17:24:02.382Z,9.48
2023-01-08T17:27:04.363Z,9.52
2023-01-08T17:30:06.553Z,9.36
2023-01-08T17:33:07.965Z,9.39
2023-01-08T17:36:21.322Z,9.70
2023-01-08T17:39:22.837Z,9.71
2023-01-08T17:42:24.337Z,9.72
2023-01-08T17:45:25.774Z,9.68
2023-01-08T17:48:27.154Z,9.65
2023-01-08T17:51:30.207Z,9.72
2023-01-08T17:54:31.735Z,9.81
2023-01-08T17:57:33.222Z,9.87
2023-01-08T18:00:34.690Z,9.52
2023-01-08T18:03:36.112Z,9.66
2023-01-08T18:06:37.938Z,9.70
2023-01-08T18:09:39.512Z,9.57
2023-01-08T18:12:41.035Z,9.78
2023-01-08T18:15:42.611Z,9.83
2023-01-08T18:18:44.333Z,9.75
2023-01-08T18:21:46.735Z,9.68
2023-01-08T18:24:48.503Z,9.65
2023-01-08T18:27:50.122Z,9.48
2023-01-08T18:30:51.615Z,9.75
2023-01-08T18:33:53.190Z,9.84
2023-01-08T18:36:54.734Z,9.76
2023-01-08T18:39:56.309Z,9.69
2023-01-08T18:42:57.725Z,9.65
2023-01-08T18:46:00.770Z,9.71
2023-01-08T18:49:02.467Z,9.73
2023-01-08T18:52:04.139Z,9.88
2023-01-08T18:55:06.206Z,9.72
2023-01-08T18:58:07.677Z,9.40
2023-01-08T19:01:09.412Z,9.47
2023-01-08T19:04:19.000Z,9.46
2023-01-08T19:07:26.298Z,9.43
2023-01-08T19:10:28.002Z,9.54
2023-01-08T19:13:29.446Z,9.36
2023-01-08T19:16:31.018Z,9.40
2023-01-08T19:19:32.523Z,9.53
2023-01-08T19:22:34.217Z,9.58
2023-01-08T19:25:39.298Z,9.64
2023-01-08T19:28:42.076Z,9.53
2023-01-08T19:31:43.642Z,9.53
2023-01-08T19:34:45.147Z,9.55
2023-01-08T19:37:46.565Z,9.56
2023-01-08T19:40:48.106Z,9.66
2023-01-08T19:43:49.805Z,9.58
2023-01-08T19:46:51.394Z,9.59
2023-01-08T19:49:52.847Z,9.31
2023-01-08T19:52:56.455Z,9.24
2023-01-08T19:56:02.449Z,9.45
2023-01-08T19:59:03.861Z,9.17
2023-01-08T20:02:05.465Z,9.44
2023-01-08T20:05:07.305Z,9.42
2023-01-08T20:08:08.821Z,9.35
2023-01-08T20:11:12.435Z,9.25
2023-01-08T20:14:14.128Z,9.44
2023-01-08T20:17:18.388Z,9.47
2023-01-08T20:20:19.846Z,9.35
2023-01-08T20:23:21.258Z,9.41
2023-01-08T20:26:22.686Z,9.51
2023-01-08T20:29:24.354Z,9.41
2023-01-08T20:32:25.832Z,9.31
2023-01-08T20:35:27.608Z,9.29
2023-01-08T20:38:29.637Z,9.39
2023-01-08T20:41:31.598Z,9.31
2023-01-08T20:44:33.871Z,9.30
2023-01-08T20:47:35.281Z,9.35
2023-01-08T20:50:37.388Z,9.47
2023-01-08T20:53:39.479Z,9.41
2023-01-08T20:56:42.681Z,9.42
2023-01-08T20:59:44.167Z,9.39
2023-01-08T21:02:46.370Z,9.35
2023-01-08T21:05:47.874Z,9.33
2023-01-08T21:08:51.502Z,9.25
2023-01-08T21:11:53.022Z,9.21
2023-01-08T21:14:54.434Z,9.26
2023-01-08T21:17:55.860Z,9.29
2023-01-08T21:21:02.129Z,9.46
2023-01-08T21:24:05.227Z,9.41
2023-01-08T21:27:06.665Z,9.40
2023-01-08T21:30:08.843Z,9.34
2023-01-08T21:33:10.306Z,9.17
2023-01-08T21:36:14.487Z,9.23
2023-01-08T21:39:15.947Z,9.17
2023-01-08T21:42:36.137Z,8.70
2023-01-08T21:45:37.605Z,8.86
2023-01-08T21:48:39.415Z,9.05
2023-01-08T21:51:59.644Z,9.16
2023-01-08T21:55:02.458Z,9.15
2023-01-08T21:58:03.887Z,9.16
2023-01-08T22:01:08.965Z,9.14
2023-01-08T22:04:10.383Z,9.15
2023-01-08T22:07:12.138Z,9.02
2023-01-08T22:10:13.743Z,9.11
2023-01-08T22:13:15.145Z,9.15
2023-01-08T22:16:16.655Z,9.27
2023-01-08T22:19:18.116Z,9.20
2023-01-08T22:22:19.608Z,9.12
2023-01-08T22:25:21.013Z,9.20
2023-01-08T22:28:22.452Z,9.12
2023-01-08T22:31:24.047Z,9.02
2023-01-08T22:34:25.604Z,9.21
2023-01-08T22:37:27.057Z,9.17
2023-01-08T22:40:28.520Z,9.25
2023-01-08T22:43:30.013Z,9.29
2023-01-08T22:46:31.634Z,9.08
2023-01-08T22:49:33.455Z,9.15
2023-01-08T22:52:35.051Z,9.03
2023-01-08T22:55:41.286Z,8.92
2023-01-08T22:58:45.200Z,8.89
2023-01-08T23:01:46.827Z,9.02
2023-01-08T23:04:52.662Z,9.15
2023-01-08T23:07:54.052Z,9.04
2023-01-08T23:10:57.274Z,8.90
2023-01-08T23:14:00.695Z,9.01
2023-01-08T23:17:02.088Z,8.82
2023-01-08T23:20:05.104Z,9.20
2023-01-08T23:23:06.503Z,9.36
2023-01-08T23:26:13.945Z,9.39
2023-01-08T23:29:15.387Z,9.44
2023-01-08T23:32:16.753Z,9.28
2023-01-08T23:35:18.163Z,9.06
2023-01-08T23:38:19.747Z,9.02
2023-01-08T23:41:23.115Z,9.05
2023-01-08T23:44:24.597Z,8.98
2023-01-08T23:47:26.016Z,9.13
2023-01-08T23:50:27.453Z,9.25
2023-01-08T23:53:28.941Z,9.10
2023-01-08T23:56:30.462Z,9.01
2023-01-08T23:59:32.398Z,9.00
